Terminal Aerodrome Forecast
Issued by NWS Atlanta, GA

Home | Current Version | Previous Version | Text Only | Print | Product List | Glossary On
Versions: 1 2 3 4 5 6 7 8 9 10 11 12 13 14 15 16 17 18 19 20 21 22 23 24 25 26 27 28
000
FTUS42 KFFC 222344 CCA
TAFAHN
TAF COR
KAHN 222344Z 2300/2324 12006KT P6SM BKN015
     FM230500 10007KT P6SM OVC010
     FM230700 10007KT P6SM VCSH OVC006
     FM231300 14008KT 5SM SHRA OVC010 PROB30 2313/2317 VRB10G20KT
      3SM TSRA BKN010CB
     FM231900 21009KT P6SM VCSH OVC020=

USA.gov is the U.S. government's official web portal to all federal, state and local government web resources and services.